sensor_id;sensor_type;location;lat;lon;timestamp;pressure;altitude;pressure_sealevel;temperature;humidity
24440;BME280;12618;54.386;18.394;2023-09-12T00:01:50;99439.59;;;17.49;93.52
24440;BME280;12618;54.386;18.394;2023-09-12T00:04:22;99438.06;;;17.47;93.07
24440;BME280;12618;54.386;18.394;2023-09-12T00:06:54;99436.71;;;17.42;94.25
24440;BME280;12618;54.386;18.394;2023-09-12T00:09:26;99437.61;;;17.39;94.77
24440;BME280;12618;54.386;18.394;2023-09-12T00:11:59;99431.66;;;17.38;94.33
24440;BME280;12618;54.386;18.394;2023-09-12T00:14:31;99436.88;;;17.37;94.03
24440;BME280;12618;54.386;18.394;2023-09-12T00:17:03;99432.95;;;17.36;94.52
24440;BME280;12618;54.386;18.394;2023-09-12T00:19:35;99433.48;;;17.35;94.53
24440;BME280;12618;54.386;18.394;2023-09-12T00:22:06;99432.80;;;17.37;94.71
24440;BME280;12618;54.386;18.394;2023-09-12T00:24:38;99430.96;;;17.38;94.59
24440;BME280;12618;54.386;18.394;2023-09-12T00:27:10;99436.33;;;17.38;93.68
24440;BME280;12618;54.386;18.394;2023-09-12T00:29:42;99435.05;;;17.32;93.56
24440;BME280;12618;54.386;18.394;2023-09-12T00:32:16;99434.34;;;17.27;93.73
24440;BME280;12618;54.386;18.394;2023-09-12T00:34:48;99430.09;;;17.21;94.42
24440;BME280;12618;54.386;18.394;2023-09-12T00:37:20;99429.23;;;17.16;94.23
24440;BME280;12618;54.386;18.394;2023-09-12T00:39:51;99427.55;;;17.12;94.68
24440;BME280;12618;54.386;18.394;2023-09-12T00:42:26;99428.65;;;17.12;94.43
24440;BME280;12618;54.386;18.394;2023-09-12T00:44:58;99428.40;;;17.11;95.10
24440;BME280;12618;54.386;18.394;2023-09-12T00:47:31;99428.25;;;17.10;95.14
24440;BME280;12618;54.386;18.394;2023-09-12T00:50:04;99427.59;;;17.05;95.04
24440;BME280;12618;54.386;18.394;2023-09-12T00:52:38;99428.48;;;17.03;95.07
24440;BME280;12618;54.386;18.394;2023-09-12T00:55:11;99429.88;;;17.01;94.79
24440;BME280;12618;54.386;18.394;2023-09-12T00:57:43;99428.42;;;16.99;94.72
24440;BME280;12618;54.386;18.394;2023-09-12T01:00:15;99424.18;;;16.99;94.80
24440;BME280;12618;54.386;18.394;2023-09-12T01:02:48;99423.95;;;16.97;94.69
24440;BME280;12618;54.386;18.394;2023-09-12T01:05:22;99421.41;;;16.96;94.65
24440;BME280;12618;54.386;18.394;2023-09-12T01:07:54;99421.48;;;16.93;94.67
24440;BME280;12618;54.386;18.394;2023-09-12T01:10:27;99418.95;;;16.91;95.06
24440;BME280;12618;54.386;18.394;2023-09-12T01:12:59;99417.73;;;16.93;95.91
24440;BME280;12618;54.386;18.394;2023-09-12T01:15:30;99421.23;;;16.93;95.53
24440;BME280;12618;54.386;18.394;2023-09-12T01:18:03;99418.73;;;16.89;95.32
24440;BME280;12618;54.386;18.394;2023-09-12T01:20:36;99418.91;;;16.87;95.23
24440;BME280;12618;54.386;18.394;2023-09-12T01:23:51;99420.36;;;16.85;95.99
24440;BME280;12618;54.386;18.394;2023-09-12T01:29:10;99427.24;;;16.79;95.76
24440;BME280;12618;54.386;18.394;2023-09-12T01:31:45;99427.48;;;16.75;95.56
24440;BME280;12618;54.386;18.394;2023-09-12T01:34:17;99428.86;;;16.68;95.19
24440;BME280;12618;54.386;18.394;2023-09-12T01:36:50;99429.08;;;16.58;95.35
24440;BME280;12618;54.386;18.394;2023-09-12T01:39:22;99428.28;;;16.53;95.62
24440;BME280;12618;54.386;18.394;2023-09-12T01:41:54;99434.17;;;16.52;96.10
24440;BME280;12618;54.386;18.394;2023-09-12T01:44:28;99431.25;;;16.58;97.31
24440;BME280;12618;54.386;18.394;2023-09-12T01:47:03;99426.37;;;16.59;98.00
24440;BME280;12618;54.386;18.394;2023-09-12T01:49:37;99426.51;;;16.57;98.74
24440;BME280;12618;54.386;18.394;2023-09-12T01:52:11;99423.98;;;16.56;99.53
24440;BME280;12618;54.386;18.394;2023-09-12T01:54:44;99426.33;;;16.60;99.63
24440;BME280;12618;54.386;18.394;2023-09-12T01:57:17;99426.41;;;16.63;99.89
24440;BME280;12618;54.386;18.394;2023-09-12T01:59:54;99423.29;;;16.69;99.73
24440;BME280;12618;54.386;18.394;2023-09-12T02:02:26;99427.45;;;16.76;99.87
24440;BME280;12618;54.386;18.394;2023-09-12T02:05:09;99428.61;;;16.74;99.99
24440;BME280;12618;54.386;18.394;2023-09-12T02:07:43;99422.27;;;16.71;100.00
24440;BME280;12618;54.386;18.394;2023-09-12T02:10:15;99420.50;;;16.76;99.91
24440;BME280;12618;54.386;18.394;2023-09-12T02:12:47;99427.33;;;16.80;99.82
24440;BME280;12618;54.386;18.394;2023-09-12T02:15:19;99425.41;;;16.81;99.97
24440;BME280;12618;54.386;18.394;2023-09-12T02:17:51;99427.27;;;16.87;99.98
24440;BME280;12618;54.386;18.394;2023-09-12T02:20:23;99430.02;;;16.88;99.83
24440;BME280;12618;54.386;18.394;2023-09-12T02:22:55;99427.02;;;16.92;99.90
24440;BME280;12618;54.386;18.394;2023-09-12T02:25:27;99427.96;;;16.98;99.97
24440;BME280;12618;54.386;18.394;2023-09-12T02:27:59;99424.90;;;17.05;99.86
24440;BME280;12618;54.386;18.394;2023-09-12T02:30:30;99427.40;;;17.12;99.98
24440;BME280;12618;54.386;18.394;2023-09-12T02:33:03;99422.39;;;17.14;99.97
24440;BME280;12618;54.386;18.394;2023-09-12T02:35:35;99422.76;;;17.17;99.94
24440;BME280;12618;54.386;18.394;2023-09-12T02:38:07;99425.91;;;17.19;100.00
24440;BME280;12618;54.386;18.394;2023-09-12T02:40:39;99422.52;;;17.24;100.00
24440;BME280;12618;54.386;18.394;2023-09-12T02:43:11;99426.42;;;17.31;100.00
24440;BME280;12618;54.386;18.394;2023-09-12T02:45:43;99420.92;;;17.28;100.00
24440;BME280;12618;54.386;18.394;2023-09-12T02:48:15;99425.05;;;17.25;100.00
24440;BME280;12618;54.386;18.394;2023-09-12T02:50:47;99420.81;;;17.21;100.00
24440;BME280;12618;54.386;18.394;2023-09-12T02:53:18;99425.60;;;17.19;100.00
24440;BME280;12618;54.386;18.394;2023-09-12T02:55:51;99422.38;;;17.17;100.00
24440;BME280;12618;54.386;18.394;2023-09-12T02:58:23;99426.33;;;17.14;100.00
24440;BME280;12618;54.386;18.394;2023-09-12T03:00:55;99424.11;;;17.09;100.00
24440;BME280;12618;54.386;18.394;2023-09-12T03:03:27;99426.06;;;17.04;100.00
24440;BME280;12618;54.386;18.394;2023-09-12T03:06:00;99423.77;;;17.04;100.00
24440;BME280;12618;54.386;18.394;2023-09-12T03:08:34;99427.99;;;17.04;100.00
24440;BME280;12618;54.386;18.394;2023-09-12T03:11:06;99429.55;;;17.01;100.00
24440;BME280;12618;54.386;18.394;2023-09-12T03:13:40;99427.98;;;16.98;100.00
24440;BME280;12618;54.386;18.394;2023-09-12T03:16:13;99429.40;;;16.96;100.00
24440;BME280;12618;54.386;18.394;2023-09-12T03:18:45;99429.30;;;16.95;100.00
24440;BME280;12618;54.386;18.394;2023-09-12T03:21:17;99429.52;;;16.96;100.00
24440;BME280;12618;54.386;18.394;2023-09-12T03:23:49;99428.05;;;16.99;100.00
24440;BME280;12618;54.386;18.394;2023-09-12T03:26:21;99426.23;;;17.04;100.00
24440;BME280;12618;54.386;18.394;2023-09-12T03:28:53;99424.20;;;17.08;100.00
24440;BME280;12618;54.386;18.394;2023-09-12T03:31:25;99422.55;;;17.01;100.00
24440;BME280;12618;54.386;18.394;2023-09-12T03:33:57;99421.20;;;16.96;100.00
24440;BME280;12618;54.386;18.394;2023-09-12T03:36:30;99420.39;;;16.95;100.00
24440;BME280;12618;54.386;18.394;2023-09-12T03:39:01;99420.20;;;16.91;100.00
24440;BME280;12618;54.386;18.394;2023-09-12T03:41:35;99425.95;;;16.88;100.00
24440;BME280;12618;54.386;18.394;2023-09-12T03:44:07;99422.42;;;16.81;100.00
24440;BME280;12618;54.386;18.394;2023-09-12T03:46:40;99421.88;;;16.79;100.00
24440;BME280;12618;54.386;18.394;2023-09-12T03:49:12;99422.75;;;16.74;100.00
24440;BME280;12618;54.386;18.394;2023-09-12T03:51:44;99423.83;;;16.67;100.00
24440;BME280;12618;54.386;18.394;2023-09-12T03:54:16;99419.02;;;16.62;100.00
24440;BME280;12618;54.386;18.394;2023-09-12T03:56:48;99417.42;;;16.62;100.00
24440;BME280;12618;54.386;18.394;2023-09-12T03:59:20;99420.21;;;16.58;100.00
24440;BME280;12618;54.386;18.394;2023-09-12T04:01:52;99419.42;;;16.57;100.00
24440;BME280;12618;54.386;18.394;2023-09-12T04:04:24;99420.77;;;16.54;100.00
24440;BME280;12618;54.386;18.394;2023-09-12T04:06:56;99420.14;;;16.50;100.00
24440;BME280;12618;54.386;18.394;2023-09-12T04:09:28;99424.70;;;16.51;100.00
24440;BME280;12618;54.386;18.394;2023-09-12T04:12:00;99420.42;;;16.56;100.00
24440;BME280;12618;54.386;18.394;2023-09-12T04:14:33;99425.46;;;16.59;100.00
24440;BME280;12618;54.386;18.394;2023-09-12T04:17:05;99417.17;;;16.57;100.00
24440;BME280;12618;54.386;18.394;2023-09-12T04:19:39;99420.63;;;16.58;100.00
24440;BME280;12618;54.386;18.394;2023-09-12T04:22:11;99418.34;;;16.59;100.00
24440;BME280;12618;54.386;18.394;2023-09-12T04:24:43;99420.11;;;16.62;100.00
24440;BME280;12618;54.386;18.394;2023-09-12T04:27:15;99418.91;;;16.59;100.00
24440;BME280;12618;54.386;18.394;2023-09-12T04:29:46;99416.38;;;16.57;100.00
24440;BME280;12618;54.386;18.394;2023-09-12T04:32:18;99418.65;;;16.56;100.00
24440;BME280;12618;54.386;18.394;2023-09-12T04:34:55;99417.85;;;16.55;100.00
24440;BME280;12618;54.386;18.394;2023-09-12T04:37:27;99413.92;;;16.55;100.00
24440;BME280;12618;54.386;18.394;2023-09-12T04:39:58;99410.22;;;16.54;100.00
24440;BME280;12618;54.386;18.394;2023-09-12T04:42:30;99411.68;;;16.56;100.00
24440;BME280;12618;54.386;18.394;2023-09-12T04:45:02;99408.56;;;16.57;100.00
24440;BME280;12618;54.386;18.394;2023-09-12T04:47:35;99411.48;;;16.61;100.00
24440;BME280;12618;54.386;18.394;2023-09-12T04:50:07;99405.56;;;16.62;100.00
24440;BME280;12618;54.386;18.394;2023-09-12T04:52:39;99412.17;;;16.64;100.00
24440;BME280;12618;54.386;18.394;2023-09-12T04:55:10;99410.48;;;16.67;100.00
24440;BME280;12618;54.386;18.394;2023-09-12T04:57:42;99412.27;;;16.74;100.00
24440;BME280;12618;54.386;18.394;2023-09-12T05:00:14;99415.61;;;16.77;100.00
24440;BME280;12618;54.386;18.394;2023-09-12T05:02:46;99415.86;;;16.76;100.00
24440;BME280;12618;54.386;18.394;2023-09-12T05:05:18;99415.96;;;16.79;100.00
24440;BME280;12618;54.386;18.394;2023-09-12T05:07:50;99416.64;;;16.80;100.00
24440;BME280;12618;54.386;18.394;2023-09-12T05:10:25;99421.04;;;16.76;100.00
24440;BME280;12618;54.386;18.394;2023-09-12T05:12:57;99419.50;;;16.82;100.00
24440;BME280;12618;54.386;18.394;2023-09-12T05:15:29;99422.99;;;16.80;100.00
24440;BME280;12618;54.386;18.394;2023-09-12T05:18:01;99420.83;;;16.81;100.00
24440;BME280;12618;54.386;18.394;2023-09-12T05:20:33;99425.95;;;16.83;100.00
24440;BME280;12618;54.386;18.394;2023-09-12T05:23:05;99424.73;;;16.86;100.00
24440;BME280;12618;54.386;18.394;2023-09-12T05:25:36;99428.09;;;16.90;100.00
24440;BME280;12618;54.386;18.394;2023-09-12T05:28:08;99429.70;;;16.97;100.00
24440;BME280;12618;54.386;18.394;2023-09-12T05:30:40;99426.59;;;17.04;100.00
24440;BME280;12618;54.386;18.394;2023-09-12T05:33:12;99427.81;;;17.11;100.00
24440;BME280;12618;54.386;18.394;2023-09-12T05:35:44;99422.64;;;17.20;100.00
24440;BME280;12618;54.386;18.394;2023-09-12T05:38:15;99422.13;;;17.27;100.00
24440;BME280;12618;54.386;18.394;2023-09-12T05:40:47;99421.27;;;17.33;100.00
24440;BME280;12618;54.386;18.394;2023-09-12T05:43:21;99422.84;;;17.40;100.00
24440;BME280;12618;54.386;18.394;2023-09-12T05:45:52;99419.29;;;17.48;100.00
24440;BME280;12618;54.386;18.394;2023-09-12T05:48:24;99421.73;;;17.58;100.00
24440;BME280;12618;54.386;18.394;2023-09-12T05:50:56;99419.50;;;17.66;100.00
24440;BME280;12618;54.386;18.394;2023-09-12T05:53:28;99421.38;;;17.74;100.00
24440;BME280;12618;54.386;18.394;2023-09-12T05:56:00;99422.02;;;17.83;100.00
24440;BME280;12618;54.386;18.394;2023-09-12T05:58:31;99429.12;;;17.90;100.00
24440;BME280;12618;54.386;18.394;2023-09-12T06:01:05;99433.85;;;17.97;100.00
24440;BME280;12618;54.386;18.394;2023-09-12T06:03:37;99430.77;;;18.02;100.00
24440;BME280;12618;54.386;18.394;2023-09-12T06:06:09;99429.27;;;18.07;100.00
24440;BME280;12618;54.386;18.394;2023-09-12T06:08:41;99433.27;;;18.14;100.00
24440;BME280;12618;54.386;18.394;2023-09-12T06:11:13;99432.56;;;18.21;100.00
24440;BME280;12618;54.386;18.394;2023-09-12T06:13:44;99429.75;;;18.31;100.00
24440;BME280;12618;54.386;18.394;2023-09-12T06:16:16;99429.72;;;18.42;100.00
24440;BME280;12618;54.386;18.394;2023-09-12T06:18:48;99431.55;;;18.51;100.00
24440;BME280;12618;54.386;18.394;2023-09-12T06:21:25;99425.81;;;18.60;100.00
24440;BME280;12618;54.386;18.394;2023-09-12T06:24:18;99422.46;;;18.72;100.00
24440;BME280;12618;54.386;18.394;2023-09-12T06:26:50;99422.41;;;18.87;100.00
24440;BME280;12618;54.386;18.394;2023-09-12T06:29:22;99425.02;;;19.03;100.00
24440;BME280;12618;54.386;18.394;2023-09-12T06:31:54;99421.96;;;19.21;100.00
24440;BME280;12618;54.386;18.394;2023-09-12T06:34:27;99423.33;;;19.41;100.00
24440;BME280;12618;54.386;18.394;2023-09-12T06:36:59;99422.73;;;19.58;100.00
24440;BME280;12618;54.386;18.394;2023-09-12T06:39:31;99426.17;;;19.76;100.00
24440;BME280;12618;54.386;18.394;2023-09-12T06:42:02;99425.52;;;19.93;100.00
24440;BME280;12618;54.386;18.394;2023-09-12T06:44:34;99426.91;;;20.10;100.00
24440;BME280;12618;54.386;18.394;2023-09-12T06:47:06;99427.71;;;20.29;100.00
24440;BME280;12618;54.386;18.394;2023-09-12T06:49:38;99425.86;;;20.45;100.00
24440;BME280;12618;54.386;18.394;2023-09-12T06:52:09;99426.42;;;20.62;100.00
24440;BME280;12618;54.386;18.394;2023-09-12T06:54:42;99424.70;;;20.80;100.00
24440;BME280;12618;54.386;18.394;2023-09-12T06:57:13;99427.03;;;21.00;100.00
24440;BME280;12618;54.386;18.394;2023-09-12T06:59:45;99430.88;;;21.20;99.88
24440;BME280;12618;54.386;18.394;2023-09-12T07:02:20;99424.08;;;21.40;100.00
24440;BME280;12618;54.386;18.394;2023-09-12T07:04:51;99428.84;;;21.59;100.00
24440;BME280;12618;54.386;18.394;2023-09-12T07:07:23;99425.73;;;21.76;100.00
24440;BME280;12618;54.386;18.394;2023-09-12T07:09:55;99425.05;;;22.00;99.93
24440;BME280;12618;54.386;18.394;2023-09-12T07:12:46;99421.94;;;22.32;99.95
24440;BME280;12618;54.386;18.394;2023-09-12T07:15:18;99417.91;;;22.72;99.07
24440;BME280;12618;54.386;18.394;2023-09-12T07:17:50;99426.98;;;23.31;98.62
24440;BME280;12618;54.386;18.394;2023-09-12T07:20:22;99426.89;;;23.97;96.60
24440;BME280;12618;54.386;18.394;2023-09-12T07:22:54;99425.92;;;24.42;95.52
24440;BME280;12618;54.386;18.394;2023-09-12T07:25:25;99427.42;;;24.80;93.65
24440;BME280;12618;54.386;18.394;2023-09-12T07:27:57;99427.13;;;24.89;90.04
24440;BME280;12618;54.386;18.394;2023-09-12T07:30:29;99430.02;;;24.93;91.87
24440;BME280;12618;54.386;18.394;2023-09-12T07:33:03;99431.80;;;24.80;88.43
24440;BME280;12618;54.386;18.394;2023-09-12T07:35:35;99429.51;;;24.50;91.50
24440;BME280;12618;54.386;18.394;2023-09-12T07:38:07;99430.96;;;24.25;93.16
24440;BME280;12618;54.386;18.394;2023-09-12T07:40:39;99433.59;;;24.08;92.00
24440;BME280;12618;54.386;18.394;2023-09-12T07:43:10;99435.29;;;23.96;92.97
24440;BME280;12618;54.386;18.394;2023-09-12T07:45:42;99435.37;;;23.85;92.47
24440;BME280;12618;54.386;18.394;2023-09-12T07:48:14;99434.48;;;23.73;86.89
24440;BME280;12618;54.386;18.394;2023-09-12T07:50:46;99437.29;;;23.72;84.47
24440;BME280;12618;54.386;18.394;2023-09-12T07:53:18;99438.71;;;24.27;86.65
24440;BME280;12618;54.386;18.394;2023-09-12T07:55:50;99441.83;;;25.44;82.06
24440;BME280;12618;54.386;18.394;2023-09-12T07:58:22;99440.66;;;26.31;73.76
24440;BME280;12618;54.386;18.394;2023-09-12T08:00:53;99443.27;;;26.96;71.44
24440;BME280;12618;54.386;18.394;2023-09-12T08:03:25;99441.45;;;27.56;74.58
24440;BME280;12618;54.386;18.394;2023-09-12T08:06:00;99440.83;;;28.28;77.79
24440;BME280;12618;54.386;18.394;2023-09-12T08:08:32;99448.04;;;28.79;75.98
24440;BME280;12618;54.386;18.394;2023-09-12T08:11:04;99452.30;;;29.16;67.60
24440;BME280;12618;54.386;18.394;2023-09-12T08:13:35;99452.58;;;29.51;70.97
24440;BME280;12618;54.386;18.394;2023-09-12T08:16:07;99450.09;;;29.69;69.00
24440;BME280;12618;54.386;18.394;2023-09-12T08:18:39;99451.12;;;29.70;67.23
24440;BME280;12618;54.386;18.394;2023-09-12T08:21:10;99452.48;;;29.76;66.25
24440;BME280;12618;54.386;18.394;2023-09-12T08:23:42;99455.99;;;29.87;65.70
24440;BME280;12618;54.386;18.394;2023-09-12T08:26:14;99461.36;;;29.90;61.92
24440;BME280;12618;54.386;18.394;2023-09-12T08:28:46;99463.09;;;29.92;62.18
24440;BME280;12618;54.386;18.394;2023-09-12T08:31:17;99461.54;;;30.09;60.64
24440;BME280;12618;54.386;18.394;2023-09-12T08:33:51;99460.40;;;30.38;63.13
24440;BME280;12618;54.386;18.394;2023-09-12T08:36:23;99463.89;;;30.84;61.51
24440;BME280;12618;54.386;18.394;2023-09-12T08:38:54;99461.16;;;31.39;59.89
24440;BME280;12618;54.386;18.394;2023-09-12T08:41:28;99459.13;;;31.96;56.12
24440;BME280;12618;54.386;18.394;2023-09-12T08:44:01;99460.03;;;32.48;58.07
24440;BME280;12618;54.386;18.394;2023-09-12T08:46:32;99462.11;;;33.00;53.53
24440;BME280;12618;54.386;18.394;2023-09-12T08:49:06;99463.20;;;33.46;49.69
24440;BME280;12618;54.386;18.394;2023-09-12T08:51:39;99460.85;;;34.02;50.67
24440;BME280;12618;54.386;18.394;2023-09-12T08:54:13;99462.17;;;34.42;46.60
24440;BME280;12618;54.386;18.394;2023-09-12T08:56:45;99461.80;;;34.33;42.48
24440;BME280;12618;54.386;18.394;2023-09-12T08:59:17;99459.95;;;34.35;43.35
24440;BME280;12618;54.386;18.394;2023-09-12T09:01:49;99463.52;;;34.50;41.03
24440;BME280;12618;54.386;18.394;2023-09-12T09:04:24;99458.95;;;34.62;41.42
24440;BME280;12618;54.386;18.394;2023-09-12T09:07:00;99464.58;;;35.05;42.59
24440;BME280;12618;54.386;18.394;2023-09-12T09:09:32;99462.35;;;35.21;39.29
24440;BME280;12618;54.386;18.394;2023-09-12T09:12:09;99461.48;;;35.56;38.91
24440;BME280;12618;54.386;18.394;2023-09-12T09:14:42;99460.71;;;35.90;38.80
24440;BME280;12618;54.386;18.394;2023-09-12T09:17:14;99455.67;;;36.21;37.97
24440;BME280;12618;54.386;18.394;2023-09-12T09:19:59;99456.25;;;36.34;35.57
24440;BME280;12618;54.386;18.394;2023-09-12T09:22:31;99457.71;;;36.02;36.67
24440;BME280;12618;54.386;18.394;2023-09-12T09:25:12;99455.69;;;36.33;35.52
24440;BME280;12618;54.386;18.394;2023-09-12T09:27:44;99453.27;;;36.64;35.17
24440;BME280;12618;54.386;18.394;2023-09-12T09:30:16;99452.40;;;36.60;33.62
24440;BME280;12618;54.386;18.394;2023-09-12T09:32:54;99450.27;;;36.31;32.80
24440;BME280;12618;54.386;18.394;2023-09-12T09:35:25;99450.83;;;36.65;35.03
24440;BME280;12618;54.386;18.394;2023-09-12T09:37:58;99445.55;;;36.84;32.96
24440;BME280;12618;54.386;18.394;2023-09-12T09:40:32;99448.69;;;36.98;32.32
24440;BME280;12618;54.386;18.394;2023-09-12T09:43:04;99446.33;;;37.09;31.95
24440;BME280;12618;54.386;18.394;2023-09-12T09:45:43;99450.64;;;37.39;31.66
24440;BME280;12618;54.386;18.394;2023-09-12T09:48:24;99445.98;;;37.61;31.28
24440;BME280;12618;54.386;18.394;2023-09-12T09:51:02;99443.98;;;37.80;30.35
24440;BME280;12618;54.386;18.394;2023-09-12T09:53:34;99440.64;;;37.77;30.28
24440;BME280;12618;54.386;18.394;2023-09-12T09:56:11;99438.64;;;37.59;28.87
24440;BME280;12618;54.386;18.394;2023-09-12T09:58:47;99435.64;;;37.31;30.12
24440;BME280;12618;54.386;18.394;2023-09-12T10:01:27;99435.07;;;37.14;29.07
24440;BME280;12618;54.386;18.394;2023-09-12T10:04:00;99428.78;;;37.17;30.16
24440;BME280;12618;54.386;18.394;2023-09-12T10:06:35;99429.48;;;37.41;29.45
24440;BME280;12618;54.386;18.394;2023-09-12T10:09:10;99428.57;;;37.25;28.12
24440;BME280;12618;54.386;18.394;2023-09-12T10:11:43;99425.33;;;37.32;28.68
24440;BME280;12618;54.386;18.394;2023-09-12T10:14:19;99421.73;;;37.43;27.98
24440;BME280;12618;54.386;18.394;2023-09-12T10:16:57;99422.50;;;37.27;27.91
24440;BME280;12618;54.386;18.394;2023-09-12T10:19:46;99420.71;;;37.15;27.59
24440;BME280;12618;54.386;18.394;2023-09-12T10:22:24;99419.23;;;37.09;27.64
24440;BME280;12618;54.386;18.394;2023-09-12T10:24:57;99418.01;;;36.73;27.36
24440;BME280;12618;54.386;18.394;2023-09-12T10:27:33;99419.21;;;36.50;28.05
24440;BME280;12618;54.386;18.394;2023-09-12T10:30:09;99416.73;;;35.93;26.81
24440;BME280;12618;54.386;18.394;2023-09-12T10:32:41;99415.02;;;35.88;27.28
24440;BME280;12618;54.386;18.394;2023-09-12T10:35:17;99410.52;;;35.77;27.57
24440;BME280;12618;54.386;18.394;2023-09-12T10:37:50;99408.24;;;35.90;27.28
24440;BME280;12618;54.386;18.394;2023-09-12T10:40:22;99405.73;;;35.65;26.92
24440;BME280;12618;54.386;18.394;2023-09-12T10:42:55;99401.94;;;35.44;27.01
24440;BME280;12618;54.386;18.394;2023-09-12T10:45:31;99397.36;;;35.37;27.69
24440;BME280;12618;54.386;18.394;2023-09-12T10:48:04;99388.34;;;35.73;28.00
24440;BME280;12618;54.386;18.394;2023-09-12T10:50:37;99389.00;;;35.98;27.77
24440;BME280;12618;54.386;18.394;2023-09-12T10:53:12;99398.40;;;36.06;27.31
24440;BME280;12618;54.386;18.394;2023-09-12T10:55:59;99400.39;;;36.04;26.95
24440;BME280;12618;54.386;18.394;2023-09-12T10:58:31;99392.98;;;35.83;26.74
24440;BME280;12618;54.386;18.394;2023-09-12T11:01:23;99392.73;;;35.83;27.12
24440;BME280;12618;54.386;18.394;2023-09-12T11:06:50;99387.55;;;35.77;27.28
24440;BME280;12618;54.386;18.394;2023-09-12T11:09:23;99392.39;;;35.52;28.05
24440;BME280;12618;54.386;18.394;2023-09-12T11:11:56;99388.91;;;35.74;28.35
24440;BME280;12618;54.386;18.394;2023-09-12T11:14:29;99389.73;;;35.84;27.88
24440;BME280;12618;54.386;18.394;2023-09-12T11:19:44;99387.71;;;35.78;27.87
24440;BME280;12618;54.386;18.394;2023-09-12T11:22:23;99387.73;;;35.57;28.07
24440;BME280;12618;54.386;18.394;2023-09-12T11:24:55;99392.33;;;35.38;28.52
24440;BME280;12618;54.386;18.394;2023-09-12T11:27:32;99390.73;;;35.23;28.68
24440;BME280;12618;54.386;18.394;2023-09-12T11:30:19;99394.92;;;35.22;29.55
24440;BME280;12618;54.386;18.394;2023-09-12T11:32:53;99392.75;;;35.21;29.16
24440;BME280;12618;54.386;18.394;2023-09-12T11:35:27;99390.86;;;35.30;29.07
24440;BME280;12618;54.386;18.394;2023-09-12T11:38:00;99392.27;;;35.34;29.32
24440;BME280;12618;54.386;18.394;2023-09-12T11:43:04;99392.23;;;35.26;29.68
24440;BME280;12618;54.386;18.394;2023-09-12T11:45:42;99390.77;;;35.34;29.55
24440;BME280;12618;54.386;18.394;2023-09-12T11:48:15;99392.05;;;35.30;29.26
24440;BME280;12618;54.386;18.394;2023-09-12T11:50:54;99392.12;;;35.28;28.86
24440;BME280;12618;54.386;18.394;2023-09-12T11:53:27;99392.88;;;35.26;29.35
24440;BME280;12618;54.386;18.394;2023-09-12T11:56:10;99391.75;;;35.20;28.96
24440;BME280;12618;54.386;18.394;2023-09-12T11:58:42;99389.93;;;35.15;28.83
24440;BME280;12618;54.386;18.394;2023-09-12T12:01:14;99388.60;;;35.19;29.19
24440;BME280;12618;54.386;18.394;2023-09-12T12:03:47;99389.46;;;35.14;29.35
24440;BME280;12618;54.386;18.394;2023-09-12T12:06:24;99385.19;;;34.92;29.67
24440;BME280;12618;54.386;18.394;2023-09-12T12:08:57;99384.34;;;34.86;30.46
24440;BME280;12618;54.386;18.394;2023-09-12T12:11:29;99381.55;;;35.04;30.32
24440;BME280;12618;54.386;18.394;2023-09-12T12:16:44;99388.33;;;34.95;29.79
24440;BME280;12618;54.386;18.394;2023-09-12T12:19:16;99391.24;;;34.91;29.53
24440;BME280;12618;54.386;18.394;2023-09-12T12:21:48;99391.48;;;34.71;30.20
24440;BME280;12618;54.386;18.394;2023-09-12T12:24:20;99391.89;;;34.70;30.51
24440;BME280;12618;54.386;18.394;2023-09-12T12:27:00;99389.00;;;34.82;29.89
24440;BME280;12618;54.386;18.394;2023-09-12T12:29:33;99389.81;;;34.42;29.86
24440;BME280;12618;54.386;18.394;2023-09-12T12:32:06;99385.81;;;33.99;30.74
24440;BME280;12618;54.386;18.394;2023-09-12T12:34:40;99387.31;;;33.87;30.67
24440;BME280;12618;54.386;18.394;2023-09-12T12:37:32;99388.59;;;33.79;31.13
24440;BME280;12618;54.386;18.394;2023-09-12T12:40:05;99386.86;;;34.06;31.02
24440;BME280;12618;54.386;18.394;2023-09-12T12:42:38;99381.38;;;34.14;30.60
24440;BME280;12618;54.386;18.394;2023-09-12T12:45:25;99386.86;;;33.85;29.99
24440;BME280;12618;54.386;18.394;2023-09-12T12:47:59;99381.48;;;33.70;30.31
24440;BME280;12618;54.386;18.394;2023-09-12T12:50:35;99382.18;;;33.74;30.14
24440;BME280;12618;54.386;18.394;2023-09-12T12:53:07;99374.67;;;33.80;30.53
24440;BME280;12618;54.386;18.394;2023-09-12T12:55:39;99376.33;;;33.86;30.14
24440;BME280;12618;54.386;18.394;2023-09-12T12:58:11;99379.02;;;33.77;30.61
24440;BME280;12618;54.386;18.394;2023-09-12T13:00:43;99374.28;;;33.77;30.72
24440;BME280;12618;54.386;18.394;2023-09-12T13:03:15;99369.59;;;33.62;30.77
24440;BME280;12618;54.386;18.394;2023-09-12T13:05:47;99368.16;;;33.48;30.78
24440;BME280;12618;54.386;18.394;2023-09-12T13:08:19;99370.46;;;33.36;30.02
24440;BME280;12618;54.386;18.394;2023-09-12T13:10:51;99373.07;;;33.19;30.59
24440;BME280;12618;54.386;18.394;2023-09-12T13:13:27;99371.79;;;33.13;30.59
24440;BME280;12618;54.386;18.394;2023-09-12T13:16:04;99367.05;;;33.01;30.76
24440;BME280;12618;54.386;18.394;2023-09-12T13:18:37;99370.16;;;32.96;30.96
24440;BME280;12618;54.386;18.394;2023-09-12T13:21:09;99368.30;;;32.77;30.83
24440;BME280;12618;54.386;18.394;2023-09-12T13:23:41;99366.38;;;32.49;31.09
24440;BME280;12618;54.386;18.394;2023-09-12T13:26:13;99360.66;;;32.34;31.38
24440;BME280;12618;54.386;18.394;2023-09-12T13:28:45;99362.52;;;32.22;31.45
24440;BME280;12618;54.386;18.394;2023-09-12T13:31:16;99362.98;;;32.13;32.00